Time;durP1;ratioP1;P1;durP2;ratioP2;P2;SDS_P1;SDS_P2;PMS_P1;PMS_P2;Temp;Humidity;BMP_temperature;BMP_pressure;BME280_temperature;BME280_humidity;BME280_pressure;Samples;Min_cycle;Max_cycle;Signal;HPM_P1;HPM_P2
2022/06/02 00:02:20;;;;;;;2.95;1.55;;;17.10;65.90;;;;;;5009194;28;20179;-61
2022/06/02 00:05:13;;;;;;;2.17;1.95;;;16.90;66.10;;;;;;5013670;28;20210;-61
2022/06/02 00:07:58;;;;;;;1.77;1.50;;;17.00;67.40;;;;;;5011937;28;20210;-61
2022/06/02 00:10:42;;;;;;;5.10;1.85;;;17.20;66.80;;;;;;5024686;28;20182;-61
2022/06/02 00:13:20;;;;;;;1.88;1.42;;;17.00;66.60;;;;;;5006543;28;20345;-61
2022/06/02 00:15:52;;;;;;;4.05;1.70;;;16.90;66.80;;;;;;5009653;28;20178;-61
2022/06/02 00:18:27;;;;;;;1.58;1.48;;;17.00;67.20;;;;;;5002416;28;20203;-61
2022/06/02 00:20:57;;;;;;;1.90;1.30;;;16.70;66.90;;;;;;5010027;28;20190;-61
2022/06/02 00:23:38;;;;;;;1.83;1.30;;;16.60;67.20;;;;;;5011580;28;20228;-63
2022/06/02 00:26:23;;;;;;;1.90;1.58;;;16.80;67.90;;;;;;5005816;28;20187;-63
2022/06/02 00:29:06;;;;;;;1.50;1.40;;;16.70;68.20;;;;;;5011142;28;20217;-63
2022/06/02 00:31:55;;;;;;;1.70;1.60;;;16.60;68.20;;;;;;5009927;28;20229;-63
2022/06/02 00:34:24;;;;;;;1.60;1.50;;;16.60;67.90;;;;;;5006561;28;20206;-63
2022/06/02 00:37:36;;;;;;;1.55;1.45;;;16.50;68.00;;;;;;5008688;28;20179;-63
2022/06/02 00:40:05;;;;;;;1.80;1.50;;;16.50;67.70;;;;;;5002381;28;20215;-61
2022/06/02 00:42:57;;;;;;;1.60;1.50;;;16.80;68.00;;;;;;5011549;28;20184;-61
2022/06/02 00:45:23;;;;;;;1.42;1.33;;;16.80;67.80;;;;;;5009679;28;20179;-60
2022/06/02 00:47:52;;;;;;;1.58;1.40;;;16.80;67.60;;;;;;5012167;28;20194;-61
2022/06/02 00:50:57;;;;;;;1.65;1.55;;;16.80;67.70;;;;;;5011176;28;20542;-61
2022/06/02 00:57:30;;;;;;;2.17;1.60;;;16.90;67.80;;;;;;4972797;28;20211;-63
2022/06/02 00:57:32;;;;;;;2.65;1.67;;;16.60;67.60;;;;;;5003646;28;20714;-61
2022/06/02 01:00:11;;;;;;;1.67;1.58;;;16.90;68.10;;;;;;5010889;28;20297;-61
2022/06/02 01:03:02;;;;;;;2.35;1.60;;;16.60;68.00;;;;;;5011835;28;20190;-63
2022/06/02 01:05:30;;;;;;;1.63;1.50;;;16.60;68.60;;;;;;5008487;28;20234;-63
2022/06/02 01:08:22;;;;;;;1.60;1.50;;;16.50;69.10;;;;;;5018216;28;20198;-63
2022/06/02 01:10:50;;;;;;;2.35;1.65;;;16.50;69.50;;;;;;5016573;28;20653;-63
2022/06/02 01:13:26;;;;;;;2.38;1.55;;;16.50;69.60;;;;;;5018264;28;20203;-63
2022/06/02 01:16:27;;;;;;;1.50;1.40;;;16.50;69.30;;;;;;5011638;28;20267;-63
2022/06/02 01:19:34;;;;;;;1.90;1.45;;;16.40;69.10;;;;;;5021836;28;20217;-61
2022/06/02 01:22:29;;;;;;;2.15;1.40;;;16.60;69.10;;;;;;4970469;28;20515;-61
2022/06/02 01:25:24;;;;;;;1.63;1.50;;;16.60;69.20;;;;;;5010798;28;20193;-63
2022/06/02 01:27:50;;;;;;;3.08;1.55;;;16.30;69.20;;;;;;5007577;28;20558;-63
2022/06/02 01:30:22;;;;;;;1.97;1.83;;;16.30;69.60;;;;;;5012211;28;20188;-63
2022/06/02 01:32:51;;;;;;;2.00;1.88;;;16.60;70.10;;;;;;5011467;28;20463;-63
2022/06/02 01:35:29;;;;;;;2.55;1.77;;;16.70;70.00;;;;;;5012016;28;20266;-63
2022/06/02 01:38:21;;;;;;;1.90;1.80;;;16.60;70.10;;;;;;5017710;28;20175;-63
2022/06/02 01:41:09;;;;;;;2.00;1.60;;;16.20;70.10;;;;;;5009137;28;20652;-63
2022/06/02 01:44:02;;;;;;;1.70;1.58;;;16.50;70.60;;;;;;5007627;28;20197;-63
2022/06/02 01:46:34;;;;;;;1.50;1.40;;;16.20;70.60;;;;;;5010364;28;20265;-63
2022/06/02 01:49:05;;;;;;;2.80;1.80;;;16.10;70.90;;;;;;5007797;28;20204;-63
2022/06/02 01:51:52;;;;;;;2.88;1.67;;;15.90;71.20;;;;;;5010388;28;20191;-61
2022/06/02 01:54:30;;;;;;;1.80;1.70;;;16.00;71.30;;;;;;5010834;28;20253;-63
2022/06/02 01:56:58;;;;;;;1.50;1.40;;;16.00;71.00;;;;;;5009165;28;20447;-63
2022/06/02 01:59:45;;;;;;;1.52;1.42;;;16.20;71.20;;;;;;5010160;28;20582;-63
2022/06/02 02:02:33;;;;;;;2.50;1.73;;;16.30;71.20;;;;;;5004777;28;20656;-65
2022/06/02 02:05:24;;;;;;;1.58;1.42;;;16.00;71.80;;;;;;5011235;28;20569;-63
2022/06/02 02:07:50;;;;;;;2.25;1.77;;;16.10;72.40;;;;;;5008113;28;20178;-61
2022/06/02 02:10:38;;;;;;;2.53;1.90;;;16.10;71.90;;;;;;5011384;28;20182;-63
2022/06/02 02:13:26;;;;;;;2.10;1.90;;;16.00;71.90;;;;;;5005138;28;20194;-63
2022/06/02 02:16:18;;;;;;;2.92;1.63;;;16.10;72.10;;;;;;5005172;28;20190;-63
2022/06/02 02:19:11;;;;;;;3.13;2.10;;;16.00;72.30;;;;;;5001523;28;20215;-63
2022/06/02 02:22:00;;;;;;;1.50;1.38;;;15.90;73.10;;;;;;5010330;28;20651;-63
2022/06/02 02:24:45;;;;;;;1.60;1.50;;;16.10;73.70;;;;;;5010939;28;20191;-63
2022/06/02 02:27:20;;;;;;;2.30;1.67;;;15.90;73.50;;;;;;5004246;28;20183;-63
2022/06/02 02:30:02;;;;;;;1.67;1.58;;;16.10;73.30;;;;;;5011171;28;20256;-63
2022/06/02 02:32:36;;;;;;;2.30;1.85;;;15.90;73.10;;;;;;5007854;28;20198;-63
2022/06/02 02:35:15;;;;;;;1.80;1.70;;;16.00;73.10;;;;;;5010178;28;20542;-63
2022/06/02 02:38:16;;;;;;;1.95;1.55;;;15.90;73.10;;;;;;5003880;28;20233;-63
2022/06/02 02:40:51;;;;;;;2.40;1.70;;;15.80;73.60;;;;;;5009504;28;20613;-63
2022/06/02 02:43:46;;;;;;;1.40;1.30;;;15.70;74.30;;;;;;5005137;28;20545;-63
2022/06/02 02:46:20;;;;;;;1.60;1.50;;;15.80;74.70;;;;;;5004806;28;20191;-63
2022/06/02 02:48:52;;;;;;;3.63;2.08;;;16.00;73.40;;;;;;5007983;28;20232;-63
2022/06/02 02:51:49;;;;;;;1.80;1.70;;;16.00;73.10;;;;;;5001651;28;20175;-63
2022/06/02 02:54:25;;;;;;;3.20;1.67;;;16.10;73.40;;;;;;5022930;28;20474;-63
2022/06/02 02:57:04;;;;;;;3.25;1.50;;;16.00;73.30;;;;;;5016095;28;20186;-63
2022/06/02 02:59:30;;;;;;;1.80;1.70;;;16.10;72.80;;;;;;5009292;28;20199;-63
2022/06/02 03:02:20;;;;;;;2.67;2.10;;;16.00;72.20;;;;;;5009676;28;20257;-63
2022/06/02 03:05:10;;;;;;;1.80;1.70;;;15.90;72.30;;;;;;5009762;28;20191;-63
2022/06/02 03:07:37;;;;;;;1.88;1.75;;;15.80;72.20;;;;;;5001588;28;20278;-63
2022/06/02 03:10:05;;;;;;;1.70;1.60;;;15.60;72.30;;;;;;5024906;28;20202;-63
2022/06/02 03:12:40;;;;;;;4.45;2.00;;;15.70;73.00;;;;;;5010491;28;20187;-63
2022/06/02 03:15:20;;;;;;;1.83;1.73;;;15.90;73.30;;;;;;5011218;28;20684;-63
2022/06/02 03:18:12;;;;;;;3.22;1.40;;;15.80;73.10;;;;;;5006732;28;20290;-63
2022/06/02 03:20:56;;;;;;;2.42;1.83;;;15.90;72.40;;;;;;5005775;28;20187;-63
2022/06/02 03:23:50;;;;;;;2.00;1.90;;;16.00;72.70;;;;;;5010372;28;20221;-63
2022/06/02 03:26:31;;;;;;;1.83;1.65;;;16.00;72.70;;;;;;5005766;28;20197;-63
2022/06/02 03:29:03;;;;;;;1.80;1.70;;;15.80;72.10;;;;;;5005179;28;20680;-63
2022/06/02 03:31:56;;;;;;;1.55;1.45;;;15.70;72.30;;;;;;5007334;28;20187;-63
2022/06/02 03:34:28;;;;;;;3.45;1.73;;;16.00;72.40;;;;;;5003101;28;20308;-63
2022/06/02 03:37:05;;;;;;;1.90;1.80;;;15.70;71.50;;;;;;5007126;28;20187;-63
2022/06/02 03:40:08;;;;;;;2.00;1.90;;;15.80;71.70;;;;;;4997612;28;20214;-63
2022/06/02 03:42:52;;;;;;;3.20;1.65;;;15.70;71.60;;;;;;5005468;28;20186;-63
2022/06/02 03:45:40;;;;;;;1.73;1.60;;;15.90;71.20;;;;;;5003310;28;20220;-63
2022/06/02 03:48:20;;;;;;;2.30;2.03;;;15.90;71.20;;;;;;5005050;28;20680;-63
2022/06/02 03:51:18;;;;;;;2.35;2.15;;;15.90;71.90;;;;;;5008773;28;20214;-63
2022/06/02 03:54:10;;;;;;;2.00;1.80;;;15.70;72.30;;;;;;5008027;28;20229;-63
2022/06/02 03:56:54;;;;;;;3.25;2.38;;;15.60;72.50;;;;;;5006245;28;20536;-63
2022/06/02 03:59:48;;;;;;;2.30;1.80;;;15.70;73.10;;;;;;5007330;28;20199;-63
2022/06/02 04:02:16;;;;;;;2.20;2.00;;;15.70;73.20;;;;;;5005972;28;20183;-63
2022/06/02 04:04:54;;;;;;;2.58;1.95;;;15.70;73.20;;;;;;5007285;28;20560;-63
2022/06/02 04:07:31;;;;;;;2.05;1.70;;;15.50;72.90;;;;;;5023333;28;20194;-63
2022/06/02 04:10:18;;;;;;;2.10;1.90;;;15.60;72.90;;;;;;5007134;28;20571;-63
2022/06/02 04:15:56;;;;;;;2.05;1.83;;;15.80;73.00;;;;;;5010052;28;20232;-63
2022/06/02 04:18:22;;;;;;;2.20;2.10;;;15.70;73.10;;;;;;5010142;28;20226;-63
2022/06/02 04:20:53;;;;;;;2.10;1.90;;;15.60;73.60;;;;;;5013428;28;20310;-63
2022/06/02 04:23:38;;;;;;;1.90;1.80;;;15.70;73.20;;;;;;5011480;28;20183;-63
2022/06/02 04:26:19;;;;;;;2.75;1.90;;;15.70;72.70;;;;;;5009491;28;20656;-62
2022/06/02 04:29:17;;;;;;;2.00;1.90;;;15.70;72.50;;;;;;5010315;28;20207;-63
2022/06/02 04:31:56;;;;;;;2.72;2.00;;;16.10;73.00;;;;;;4978630;28;20674;-63
2022/06/02 04:34:49;;;;;;;2.15;1.92;;;15.80;72.20;;;;;;5008924;28;20214;-63
2022/06/02 04:37:34;;;;;;;2.72;2.30;;;15.90;72.00;;;;;;5007345;28;20183;-63
2022/06/02 04:40:03;;;;;;;2.22;2.08;;;16.00;72.50;;;;;;5011806;28;20209;-63
2022/06/02 04:42:48;;;;;;;2.35;2.25;;;15.80;72.50;;;;;;5011764;28;20179;-63
2022/06/02 04:45:40;;;;;;;2.92;2.70;;;15.60;73.50;;;;;;5007276;28;20187;-63
2022/06/02 04:48:33;;;;;;;2.22;1.80;;;15.60;72.90;;;;;;5009558;28;20207;-63
2022/06/02 04:51:11;;;;;;;2.75;1.95;;;16.10;73.80;;;;;;5009310;28;20671;-63
2022/06/02 04:53:51;;;;;;;3.15;2.72;;;15.90;73.40;;;;;;5010205;28;20218;-63
2022/06/02 04:56:46;;;;;;;2.47;2.28;;;15.90;72.70;;;;;;5008468;28;20179;-63
2022/06/02 04:59:21;;;;;;;2.50;2.30;;;16.00;73.10;;;;;;5006422;28;20236;-63
2022/06/02 05:02:11;;;;;;;2.33;2.13;;;16.10;74.00;;;;;;5010116;28;20213;-63
2022/06/02 05:04:40;;;;;;;2.40;2.20;;;16.10;73.40;;;;;;5009408;28;20210;-63
2022/06/02 05:07:35;;;;;;;2.20;2.00;;;16.20;73.50;;;;;;5007504;28;20229;-63
2022/06/02 05:10:27;;;;;;;3.42;2.30;;;16.10;74.90;;;;;;5006004;28;20230;-63
2022/06/02 05:12:55;;;;;;;1.98;1.88;;;16.40;73.90;;;;;;5007877;28;20585;-63
2022/06/02 05:15:39;;;;;;;3.53;2.15;;;16.60;73.40;;;;;;5009100;28;20194;-63
2022/06/02 05:18:33;;;;;;;2.38;2.17;;;16.50;71.50;;;;;;5004313;28;20716;-63
2022/06/02 05:21:43;;;;;;;2.45;2.25;;;17.00;71.30;;;;;;5006651;28;20644;-63
2022/06/02 05:24:21;;;;;;;2.40;2.20;;;17.30;71.20;;;;;;5003370;28;20182;-63
2022/06/02 05:27:01;;;;;;;5.15;4.07;;;17.20;71.20;;;;;;5007710;28;20190;-63
2022/06/02 05:29:45;;;;;;;2.30;2.20;;;17.30;70.30;;;;;;5007993;28;20211;-62
2022/06/02 05:32:46;;;;;;;8.52;6.88;;;17.30;69.90;;;;;;5010428;28;20618;-61
2022/06/02 05:36:07;;;;;;;3.13;2.15;;;17.70;69.40;;;;;;5003623;28;20544;-61
2022/06/02 05:39:10;;;;;;;2.30;2.10;;;17.80;67.40;;;;;;4986529;28;20210;-62
2022/06/02 05:41:50;;;;;;;2.30;2.13;;;17.80;67.30;;;;;;4980943;28;20196;-62
2022/06/02 05:44:24;;;;;;;4.20;3.90;;;17.70;66.40;;;;;;5008564;28;20717;-62
2022/06/02 05:46:56;;;;;;;2.78;2.50;;;17.80;66.10;;;;;;5016192;28;20281;-61
2022/06/02 05:49:47;;;;;;;2.60;2.40;;;17.90;66.00;;;;;;4997781;28;20206;-61
2022/06/02 05:52:28;;;;;;;2.40;2.20;;;18.00;66.20;;;;;;5007590;28;20194;-61
2022/06/02 05:55:24;;;;;;;2.90;2.50;;;17.90;65.90;;;;;;5009470;28;20698;-62
2022/06/02 05:58:25;;;;;;;3.95;2.50;;;18.00;65.20;;;;;;5024876;28;20214;-62
2022/06/02 06:01:15;;;;;;;3.25;2.40;;;18.20;62.40;;;;;;5015300;28;20274;-62
2022/06/02 06:03:51;;;;;;;2.35;2.15;;;18.40;63.10;;;;;;5009023;28;20202;-62
2022/06/02 06:06:41;;;;;;;3.28;2.50;;;18.40;62.90;;;;;;5010100;28;20178;-62
2022/06/02 06:09:23;;;;;;;2.25;2.15;;;18.50;63.10;;;;;;5001636;28;20203;-62
2022/06/02 06:12:33;;;;;;;2.97;2.67;;;18.50;62.80;;;;;;5007463;28;20221;-61
2022/06/02 06:15:04;;;;;;;2.65;2.45;;;18.50;64.00;;;;;;5009897;28;20210;-62
2022/06/02 06:17:45;;;;;;;2.22;2.03;;;18.50;62.30;;;;;;5009007;28;20187;-62
2022/06/02 06:20:15;;;;;;;2.72;2.53;;;18.40;62.70;;;;;;5007172;28;20229;-62
2022/06/02 06:23:00;;;;;;;3.22;2.92;;;18.40;62.90;;;;;;5009737;28;20179;-62
2022/06/02 06:25:32;;;;;;;3.13;2.83;;;18.40;63.40;;;;;;5010763;28;20187;-62
2022/06/02 06:28:15;;;;;;;4.85;4.45;;;18.70;63.20;;;;;;5009692;28;20250;-62
2022/06/02 06:31:08;;;;;;;2.58;2.40;;;18.60;63.40;;;;;;4997652;28;20258;-62
2022/06/02 06:33:51;;;;;;;4.80;3.05;;;18.60;63.30;;;;;;5009714;28;20210;-61
2022/06/02 06:36:56;;;;;;;4.75;2.70;;;18.60;63.80;;;;;;5009409;28;20694;-62
2022/06/02 06:39:58;;;;;;;5.70;3.78;;;18.60;64.40;;;;;;4994805;28;20199;-62
2022/06/02 06:42:57;;;;;;;2.65;2.42;;;18.40;64.30;;;;;;5004524;28;20170;-62
2022/06/02 06:45:50;;;;;;;4.10;2.22;;;18.60;63.90;;;;;;5005022;28;20175;-61
2022/06/02 06:48:32;;;;;;;2.50;2.30;;;18.70;63.30;;;;;;5004170;28;20630;-62
2022/06/02 06:51:09;;;;;;;12.63;10.50;;;18.80;63.30;;;;;;5010399;28;20223;-62
2022/06/02 06:53:58;;;;;;;2.70;2.50;;;19.20;63.80;;;;;;5009253;28;20671;-62
2022/06/02 06:56:32;;;;;;;3.03;2.80;;;19.10;63.60;;;;;;5008576;28;20182;-62
2022/06/02 06:59:23;;;;;;;5.43;3.20;;;19.20;63.40;;;;;;5010986;28;20204;-62
2022/06/02 07:02:28;;;;;;;2.72;2.50;;;19.40;62.10;;;;;;5007822;28;20182;-62
2022/06/02 07:05:14;;;;;;;2.83;2.50;;;20.00;61.90;;;;;;4997584;28;20194;-62
2022/06/02 07:08:04;;;;;;;3.27;2.43;;;22.80;57.50;;;;;;5004319;28;20507;-62
2022/06/02 07:10:43;;;;;;;3.20;2.90;;;24.90;52.60;;;;;;5003694;28;20459;-63
2022/06/02 07:13:28;;;;;;;5.43;2.70;;;26.50;49.80;;;;;;5009842;28;20462;-63
2022/06/02 07:16:11;;;;;;;5.40;3.00;;;29.40;44.00;;;;;;5007622;28;20437;-63
2022/06/02 07:19:01;;;;;;;4.73;2.30;;;31.60;39.80;;;;;;5009811;28;20452;-63
2022/06/02 07:21:51;;;;;;;2.47;2.00;;;32.30;38.00;;;;;;5005796;28;20476;-63
2022/06/02 07:24:23;;;;;;;2.67;2.37;;;33.70;35.60;;;;;;5028009;28;20437;-63
2022/06/02 07:27:01;;;;;;;2.60;1.90;;;33.40;33.50;;;;;;5007688;28;20533;-63
2022/06/02 07:29:29;;;;;;;2.30;2.10;;;32.90;34.40;;;;;;5009438;28;20996;-63
2022/06/02 07:32:18;;;;;;;2.00;1.80;;;33.10;33.40;;;;;;5009379;28;20445;-63
2022/06/02 07:35:31;;;;;;;3.00;2.60;;;32.20;34.10;;;;;;5009638;28;20472;-63
2022/06/02 07:38:24;;;;;;;2.10;1.90;;;31.30;33.60;;;;;;5009641;28;20460;-63
2022/06/02 07:41:19;;;;;;;3.93;2.17;;;31.00;36.80;;;;;;5003840;28;20515;-63
2022/06/02 07:44:17;;;;;;;1.70;1.60;;;30.90;36.20;;;;;;5006501;28;20432;-63
2022/06/02 07:47:13;;;;;;;2.10;2.00;;;32.20;33.80;;;;;;4986191;28;20463;-63
2022/06/02 07:49:50;;;;;;;2.30;2.10;;;31.50;34.50;;;;;;5009843;28;20471;-63
2022/06/02 07:52:39;;;;;;;2.80;2.30;;;31.10;34.40;;;;;;5013009;28;20523;-63
2022/06/02 07:55:33;;;;;;;2.87;2.10;;;31.20;34.30;;;;;;5012592;28;20500;-65
2022/06/02 07:58:35;;;;;;;6.10;2.00;;;30.80;36.20;;;;;;5013180;28;20432;-64
2022/06/02 08:01:16;;;;;;;2.57;2.37;;;32.40;34.50;;;;;;5010489;28;20433;-64
2022/06/02 08:03:54;;;;;;;2.47;2.23;;;33.60;33.40;;;;;;5011073;28;20438;-65
2022/06/02 08:06:35;;;;;;;1.90;1.80;;;34.70;30.10;;;;;;5009311;28;20942;-65
2022/06/02 08:09:20;;;;;;;2.00;1.90;;;35.10;30.10;;;;;;5012850;28;21014;-64
2022/06/02 08:11:54;;;;;;;2.43;1.93;;;35.10;29.90;;;;;;5005216;28;20434;-64
2022/06/02 08:14:19;;;;;;;2.03;1.93;;;34.80;29.10;;;;;;5007196;28;20464;-63
2022/06/02 08:16:54;;;;;;;5.47;2.40;;;33.60;31.20;;;;;;5011582;28;20445;-63
2022/06/02 08:19:55;;;;;;;2.30;2.10;;;34.70;30.50;;;;;;5011646;28;20206;-67
2022/06/02 08:22:34;;;;;;;2.53;2.33;;;33.60;31.30;;;;;;5006442;28;20426;-65
2022/06/02 08:25:09;;;;;;;2.43;2.23;;;34.00;29.90;;;;;;5010632;28;20643;-67
2022/06/02 08:28:09;;;;;;;2.90;2.07;;;32.90;30.90;;;;;;5009993;28;20524;-65
2022/06/02 08:30:46;;;;;;;2.50;2.30;;;34.60;30.50;;;;;;5007709;28;20418;-65
2022/06/02 08:33:26;;;;;;;3.23;2.30;;;34.80;29.70;;;;;;5009027;28;20566;-65
2022/06/02 08:36:07;;;;;;;2.73;2.17;;;35.00;29.80;;;;;;5012583;28;20432;-63
2022/06/02 08:38:42;;;;;;;3.10;2.30;;;33.80;30.30;;;;;;5008018;28;20752;-63
2022/06/02 08:41:45;;;;;;;2.67;2.10;;;33.80;29.60;;;;;;5005353;28;20425;-62
2022/06/02 08:44:35;;;;;;;2.20;2.00;;;35.30;29.80;;;;;;5005568;28;20881;-63
2022/06/02 08:47:31;;;;;;;2.30;1.90;;;35.50;28.70;;;;;;5009641;28;20491;-62
2022/06/02 08:50:10;;;;;;;2.20;1.60;;;34.60;29.50;;;;;;5010979;28;20488;-63
2022/06/02 08:53:03;;;;;;;2.40;2.20;;;35.70;29.20;;;;;;5006830;28;20434;-63
2022/06/02 08:55:48;;;;;;;2.30;2.10;;;34.60;29.70;;;;;;5006660;28;20449;-63
2022/06/02 08:58:38;;;;;;;3.20;2.13;;;34.40;29.90;;;;;;5008596;28;20544;-63
2022/06/02 09:01:27;;;;;;;2.00;1.77;;;34.20;29.80;;;;;;5010652;28;20445;-63
2022/06/02 09:04:32;;;;;;;1.90;1.80;;;34.50;30.20;;;;;;5010435;28;20491;-63
2022/06/02 09:07:20;;;;;;;2.27;1.93;;;32.80;30.40;;;;;;5010974;28;20516;-63
2022/06/02 09:10:08;;;;;;;2.07;1.97;;;33.40;31.60;;;;;;5012128;28;20446;-63
2022/06/02 09:12:56;;;;;;;4.93;2.10;;;34.40;30.00;;;;;;5008797;28;21098;-63
2022/06/02 09:15:53;;;;;;;2.20;2.00;;;34.80;30.00;;;;;;5008407;28;20563;-63
2022/06/02 09:18:36;;;;;;;2.27;2.07;;;35.80;29.10;;;;;;5010925;28;21206;-63
2022/06/02 09:21:20;;;;;;;1.90;1.73;;;36.30;28.70;;;;;;5010696;28;20464;-63
2022/06/02 09:24:17;;;;;;;1.97;1.87;;;36.10;28.30;;;;;;5010765;28;20461;-63
2022/06/02 09:27:00;;;;;;;3.90;1.90;;;34.40;27.80;;;;;;5005526;28;20438;-63
2022/06/02 09:29:50;;;;;;;3.60;2.17;;;34.40;29.60;;;;;;5010433;28;21046;-63
2022/06/02 09:32:29;;;;;;;2.40;2.20;;;35.30;29.40;;;;;;5006499;28;20942;-66
2022/06/02 09:35:01;;;;;;;2.30;1.90;;;33.90;29.40;;;;;;5011079;28;20472;-65
2022/06/02 09:37:27;;;;;;;1.80;1.70;;;34.20;30.00;;;;;;5026053;28;20563;-64
2022/06/02 09:40:23;;;;;;;3.53;2.17;;;34.00;29.90;;;;;;5003569;28;20544;-65
2022/06/02 09:43:17;;;;;;;3.50;1.80;;;34.70;29.40;;;;;;5011253;28;20591;-65
2022/06/02 09:46:14;;;;;;;3.80;1.77;;;34.50;29.30;;;;;;5011459;28;21062;-66
2022/06/02 09:48:48;;;;;;;2.63;1.80;;;35.40;29.30;;;;;;5008439;28;20803;-65
2022/06/02 09:51:36;;;;;;;3.43;2.00;;;34.90;29.30;;;;;;5003157;28;20532;-65
2022/06/02 09:54:29;;;;;;;1.93;1.73;;;35.40;29.30;;;;;;5009535;28;20461;-65
2022/06/02 09:57:55;;;;;;;2.40;2.00;;;35.40;29.20;;;;;;5003258;28;20410;-65
2022/06/02 10:00:22;;;;;;;2.53;2.10;;;33.30;30.30;;;;;;5009811;28;20842;-67
2022/06/02 10:02:55;;;;;;;2.93;2.30;;;34.10;30.50;;;;;;5017601;28;20904;-66
2022/06/02 10:05:21;;;;;;;5.50;2.50;;;34.40;30.20;;;;;;5010711;28;20429;-65
2022/06/02 10:07:58;;;;;;;2.40;2.20;;;33.70;30.00;;;;;;5009337;28;20422;-67
2022/06/02 10:10:26;;;;;;;2.90;2.00;;;33.70;30.70;;;;;;5009486;28;20185;-66
2022/06/02 10:13:29;;;;;;;2.87;2.50;;;33.70;31.30;;;;;;5009988;28;20796;-65
2022/06/02 10:15:55;;;;;;;2.83;2.40;;;34.20;29.90;;;;;;5009860;28;20715;-65
2022/06/02 10:18:34;;;;;;;2.20;2.07;;;33.60;30.80;;;;;;5011460;28;20448;-65
2022/06/02 10:21:25;;;;;;;2.33;2.23;;;33.90;30.60;;;;;;5010535;28;20177;-65
2022/06/02 10:24:21;;;;;;;5.40;2.50;;;33.10;31.30;;;;;;5006256;28;20431;-67
2022/06/02 10:27:08;;;;;;;2.53;2.33;;;33.20;31.00;;;;;;5008758;28;20450;-65
2022/06/02 10:29:56;;;;;;;3.27;1.93;;;33.80;31.60;;;;;;5007067;28;20472;-65
2022/06/02 10:32:59;;;;;;;3.87;2.27;;;34.40;30.60;;;;;;5006259;28;20442;-66
2022/06/02 10:35:42;;;;;;;3.70;2.10;;;33.70;30.70;;;;;;5011260;28;20421;-65
2022/06/02 10:38:34;;;;;;;2.50;2.30;;;33.70;30.90;;;;;;5005910;28;20453;-66
2022/06/02 10:41:16;;;;;;;3.40;2.10;;;34.10;30.20;;;;;;5010877;28;20922;-66
2022/06/02 10:43:47;;;;;;;2.57;2.37;;;34.00;30.00;;;;;;5007744;28;20426;-65
2022/06/02 10:46:15;;;;;;;2.17;1.97;;;34.40;30.50;;;;;;5009544;28;20437;-66
2022/06/02 10:49:07;;;;;;;2.20;2.10;;;35.30;29.90;;;;;;5009888;28;20945;-67
2022/06/02 10:51:53;;;;;;;3.03;2.47;;;35.60;29.60;;;;;;4995479;28;20838;-66
2022/06/02 10:54:55;;;;;;;2.50;2.20;;;34.90;29.20;;;;;;5006119;28;20461;-66
2022/06/02 10:57:45;;;;;;;2.43;2.23;;;34.30;30.10;;;;;;5004005;28;20524;-66
2022/06/02 11:00:32;;;;;;;2.63;2.43;;;34.70;30.00;;;;;;5009504;28;20426;-67
2022/06/02 11:03:35;;;;;;;2.70;2.40;;;34.40;30.10;;;;;;5009372;28;20536;-66
2022/06/02 11:06:38;;;;;;;2.67;2.47;;;34.00;30.10;;;;;;5006206;28;20429;-67
2022/06/02 11:09:42;;;;;;;1.97;1.87;;;33.40;31.00;;;;;;5000546;28;20481;-66
2022/06/02 11:12:25;;;;;;;2.40;2.30;;;34.50;30.10;;;;;;5003467;28;20441;-67
2022/06/02 11:15:15;;;;;;;2.90;1.87;;;34.90;29.70;;;;;;5007844;28;20939;-65
2022/06/02 11:18:17;;;;;;;2.50;2.30;;;34.00;30.20;;;;;;5008692;28;20449;-66
2022/06/02 11:21:17;;;;;;;2.43;2.23;;;33.70;30.50;;;;;;5008030;28;20941;-66
2022/06/02 11:24:04;;;;;;;2.53;2.30;;;34.30;31.50;;;;;;5008420;28;20954;-65
2022/06/02 11:26:39;;;;;;;2.40;2.20;;;33.90;30.60;;;;;;5014206;28;20868;-66
2022/06/02 11:29:38;;;;;;;3.20;2.57;;;32.70;31.90;;;;;;5005824;28;20582;-65
2022/06/02 11:32:20;;;;;;;2.40;2.20;;;32.70;32.40;;;;;;5011828;28;20445;-65
2022/06/02 11:34:45;;;;;;;2.60;2.40;;;32.70;32.40;;;;;;5013067;28;20461;-66
2022/06/02 11:37:45;;;;;;;4.27;3.93;;;32.80;32.60;;;;;;5012963;28;20486;-67
2022/06/02 11:40:37;;;;;;;3.83;2.47;;;31.80;33.10;;;;;;5012190;28;20185;-65
2022/06/02 11:43:16;;;;;;;3.43;2.47;;;31.40;34.50;;;;;;5013756;28;20474;-65
2022/06/02 11:46:12;;;;;;;2.30;1.80;;;31.50;34.20;;;;;;5012652;28;20511;-66
2022/06/02 11:48:52;;;;;;;2.10;1.87;;;31.00;35.00;;;;;;5012831;28;20449;-66
2022/06/02 11:51:39;;;;;;;2.03;1.93;;;29.70;35.80;;;;;;5006551;28;20799;-65
2022/06/02 11:54:33;;;;;;;2.20;2.10;;;29.10;37.10;;;;;;5015534;28;20468;-65
2022/06/02 11:57:17;;;;;;;2.23;1.93;;;28.80;38.30;;;;;;5011681;28;20784;-65
2022/06/02 12:00:11;;;;;;;3.33;2.20;;;28.40;38.50;;;;;;5012692;28;20449;-65
2022/06/02 12:03:15;;;;;;;2.27;2.10;;;27.70;39.70;;;;;;4992089;28;20860;-65
2022/06/02 12:05:59;;;;;;;2.43;2.10;;;27.20;41.20;;;;;;5012962;28;20434;-67
2022/06/02 12:09:01;;;;;;;4.30;2.70;;;27.00;41.80;;;;;;5010818;28;20460;-65
2022/06/02 12:11:42;;;;;;;2.90;2.67;;;26.30;42.00;;;;;;5010742;28;21254;-65
2022/06/02 12:14:41;;;;;;;3.13;2.70;;;26.30;42.80;;;;;;5006900;28;20467;-65
2022/06/02 12:17:24;;;;;;;2.27;2.07;;;26.40;43.00;;;;;;4995182;28;20442;-66
2022/06/02 12:20:10;;;;;;;2.93;2.20;;;26.50;42.80;;;;;;5005126;28;20446;-65
2022/06/02 12:23:08;;;;;;;2.70;2.50;;;26.40;43.20;;;;;;5006261;28;20426;-67
2022/06/02 12:25:39;;;;;;;2.90;2.70;;;26.40;42.90;;;;;;5010043;28;20487;-64
2022/06/02 12:28:25;;;;;;;2.90;2.30;;;26.50;44.00;;;;;;4998790;28;20555;-65
2022/06/02 12:31:03;;;;;;;2.73;2.50;;;26.50;43.60;;;;;;5007974;28;20499;-65
2022/06/02 12:33:53;;;;;;;2.60;2.40;;;26.50;43.40;;;;;;5011949;28;20877;-66
2022/06/02 12:36:33;;;;;;;3.40;2.90;;;26.40;44.10;;;;;;5005476;28;20734;-65
2022/06/02 12:39:25;;;;;;;3.03;2.77;;;26.50;43.60;;;;;;5011148;28;20460;-65
2022/06/02 12:42:09;;;;;;;7.60;3.47;;;26.50;43.60;;;;;;5025782;28;20948;-65
2022/06/02 12:45:15;;;;;;;2.60;2.40;;;26.50;44.10;;;;;;5012352;28;20520;-64
2022/06/02 12:47:59;;;;;;;3.23;2.30;;;26.50;43.60;;;;;;5009850;28;20521;-65
2022/06/02 12:50:54;;;;;;;3.23;2.93;;;26.60;43.50;;;;;;5010817;28;20466;-65
2022/06/02 12:54:01;;;;;;;2.30;2.10;;;26.60;44.10;;;;;;5009323;28;20492;-67
2022/06/02 12:56:45;;;;;;;4.03;2.47;;;26.80;43.60;;;;;;5013795;28;20449;-64
2022/06/02 12:59:20;;;;;;;2.27;2.07;;;26.50;43.70;;;;;;5007855;28;20445;-66
2022/06/02 13:02:04;;;;;;;2.90;2.30;;;26.00;45.00;;;;;;5008621;28;20444;-65
2022/06/02 13:04:48;;;;;;;3.30;2.60;;;26.10;44.80;;;;;;5011814;28;20790;-67
2022/06/02 13:07:26;;;;;;;2.60;2.40;;;26.10;44.80;;;;;;5005818;28;20768;-64
2022/06/02 13:10:02;;;;;;;4.60;3.07;;;26.10;44.30;;;;;;5007140;28;20906;-64
2022/06/02 13:13:11;;;;;;;4.90;2.93;;;26.10;44.70;;;;;;5011807;28;20443;-65
2022/06/02 13:15:55;;;;;;;2.93;2.40;;;26.10;44.60;;;;;;5009542;28;20528;-65
2022/06/02 13:18:45;;;;;;;3.83;2.20;;;26.10;44.70;;;;;;5010755;28;20473;-64
2022/06/02 13:21:42;;;;;;;5.30;2.83;;;26.10;45.00;;;;;;5006224;28;20420;-64
2022/06/02 13:24:22;;;;;;;2.83;2.30;;;25.80;45.40;;;;;;5005177;28;20427;-66
2022/06/02 13:27:14;;;;;;;2.50;2.30;;;26.10;45.40;;;;;;5011338;28;20834;-65
2022/06/02 13:29:46;;;;;;;3.07;2.87;;;26.30;45.00;;;;;;5011298;28;20483;-65
2022/06/02 13:32:44;;;;;;;2.27;2.13;;;26.30;44.60;;;;;;5010720;28;20471;-65
2022/06/02 13:35:46;;;;;;;2.60;2.40;;;26.30;44.70;;;;;;4991233;28;20473;-65
2022/06/02 13:38:27;;;;;;;5.93;2.00;;;26.30;44.70;;;;;;5008123;28;20455;-67
2022/06/02 13:41:03;;;;;;;3.10;2.20;;;26.20;44.80;;;;;;5010310;28;20459;-65
2022/06/02 13:43:49;;;;;;;2.67;2.47;;;26.30;44.70;;;;;;5007694;28;20949;-64
2022/06/02 13:46:52;;;;;;;3.60;3.30;;;26.00;45.10;;;;;;5009214;28;20446;-65
2022/06/02 13:49:34;;;;;;;3.10;2.50;;;26.10;45.60;;;;;;5007432;28;20448;-65
2022/06/02 13:52:21;;;;;;;4.90;2.60;;;25.90;45.40;;;;;;5008358;28;20460;-65
2022/06/02 13:58:21;;;;;;;4.23;2.80;;;25.40;46.60;;;;;;5009597;28;20426;-64
2022/06/02 14:01:10;;;;;;;5.20;4.50;;;25.60;46.40;;;;;;5010142;28;20518;-64
2022/06/02 14:03:59;;;;;;;4.13;2.17;;;25.80;46.30;;;;;;5011146;28;20885;-66
2022/06/02 14:06:27;;;;;;;4.67;2.23;;;25.90;45.80;;;;;;5003745;28;20428;-64
2022/06/02 14:09:30;;;;;;;4.63;3.50;;;26.10;45.30;;;;;;5009792;28;20452;-65
2022/06/02 14:12:46;;;;;;;2.37;2.17;;;25.70;46.20;;;;;;5009855;28;21013;-64
2022/06/02 14:15:53;;;;;;;4.63;3.40;;;25.80;46.10;;;;;;4963736;28;20477;-64
2022/06/02 14:18:27;;;;;;;2.37;2.20;;;25.80;46.20;;;;;;4948944;28;20472;-64
2022/06/02 14:21:16;;;;;;;2.60;2.40;;;25.60;46.60;;;;;;5001641;28;20435;-66
2022/06/02 14:23:56;;;;;;;3.50;2.90;;;25.50;46.60;;;;;;5009342;28;20439;-65
2022/06/02 14:26:46;;;;;;;4.97;2.73;;;25.40;47.20;;;;;;5010299;28;20414;-66
2022/06/02 14:29:20;;;;;;;2.63;2.43;;;25.30;47.20;;;;;;5003549;28;20446;-65
2022/06/02 14:32:17;;;;;;;2.60;2.40;;;25.00;47.30;;;;;;5008626;28;20449;-63